createdAt,value
2018-03-22T00:00:01.625Z,21.2
2018-03-22T00:00:51.684Z,21.3
2018-03-22T00:01:41.457Z,21.2
2018-03-22T00:02:32.394Z,21.2
2018-03-22T00:03:22.313Z,21.2
2018-03-22T00:04:11.364Z,21.2
2018-03-22T00:05:01.717Z,21.2
2018-03-22T00:05:51.754Z,21.2
2018-03-22T00:06:42.206Z,21.2
2018-03-22T00:07:31.662Z,21.2
2018-03-22T00:08:22.304Z,21.2
2018-03-22T00:09:12.281Z,21.2
2018-03-22T00:12:32.023Z,21.2
2018-03-22T00:19:12.736Z,21.1
2018-03-22T00:20:03.456Z,21.1
2018-03-22T00:20:52.825Z,21.1
2018-03-22T00:21:43.411Z,21.1
2018-03-22T00:22:33.490Z,21.1
2018-03-22T00:23:23.356Z,21.1
2018-03-22T00:24:13.334Z,21.1
2018-03-22T00:25:03.356Z,21.1
2018-03-22T00:25:53.216Z,21.1
2018-03-22T00:26:43.800Z,21.1
2018-03-22T00:27:33.518Z,21.1
2018-03-22T00:28:23.918Z,21
2018-03-22T00:29:13.979Z,21.1
2018-03-22T00:30:03.241Z,21
2018-03-22T00:30:53.197Z,21
2018-03-22T00:31:43.662Z,21
2018-03-22T00:32:34.157Z,21
2018-03-22T00:33:23.960Z,21
2018-03-22T00:34:13.817Z,21
2018-03-22T00:35:03.174Z,21
2018-03-22T00:35:53.835Z,21
2018-03-22T00:36:43.983Z,21
2018-03-22T00:37:33.756Z,21
2018-03-22T00:38:24.325Z,21
2018-03-22T00:39:14.890Z,20.9
2018-03-22T00:40:04.141Z,20.9
2018-03-22T00:40:54.483Z,21
2018-03-22T00:41:44.155Z,20.9
2018-03-22T00:42:35.239Z,20.9
2018-03-22T00:43:24.661Z,20.9
2018-03-22T00:44:13.812Z,20.9
2018-03-22T00:45:04.884Z,20.9
2018-03-22T00:45:54.444Z,20.9
2018-03-22T00:46:44.491Z,20.9
2018-03-22T00:47:34.949Z,20.9
2018-03-22T00:48:24.031Z,20.9
2018-03-22T00:49:15.344Z,20.9
2018-03-22T00:50:05.018Z,20.9
2018-03-22T00:50:55.183Z,20.9
2018-03-22T00:51:45.126Z,20.9
2018-03-22T00:52:35.036Z,20.9
2018-03-22T00:53:25.659Z,20.9
2018-03-22T00:54:14.999Z,20.9
2018-03-22T00:55:04.577Z,20.9
2018-03-22T00:55:55.314Z,20.9
2018-03-22T00:56:45.392Z,20.9
2018-03-22T00:57:35.541Z,20.9
2018-03-22T00:58:25.413Z,20.9
2018-03-22T00:59:15.183Z,20.9
2018-03-22T01:00:05.788Z,20.9
2018-03-22T01:00:56.196Z,20.9
2018-03-22T01:01:45.725Z,20.9
2018-03-22T01:02:35.995Z,20.8
2018-03-22T01:03:26.055Z,20.8
2018-03-22T01:04:16.125Z,20.9
2018-03-22T01:05:05.975Z,20.9
2018-03-22T01:05:56.226Z,20.8
2018-03-22T01:06:46.261Z,20.8
2018-03-22T01:07:36.426Z,20.9
2018-03-22T01:08:25.796Z,20.8
2018-03-22T01:09:16.761Z,20.8
2018-03-22T01:10:06.097Z,20.8
2018-03-22T01:10:56.856Z,20.8
2018-03-22T01:11:46.755Z,20.8
2018-03-22T01:12:36.497Z,20.8
2018-03-22T01:13:27.067Z,20.8
2018-03-22T01:14:16.511Z,20.8
2018-03-22T01:15:06.565Z,20.8
2018-03-22T01:15:56.930Z,20.8
2018-03-22T01:16:46.981Z,20.8
2018-03-22T01:17:37.368Z,20.8
2018-03-22T01:18:26.621Z,20.8
2018-03-22T01:19:17.026Z,20.8
2018-03-22T01:20:06.945Z,20.8
2018-03-22T01:20:56.803Z,20.8
2018-03-22T01:21:47.337Z,20.8
2018-03-22T01:22:37.179Z,20.8
2018-03-22T01:23:27.057Z,20.8
2018-03-22T01:24:17.223Z,20.8
2018-03-22T01:25:07.365Z,20.8
2018-03-22T01:25:57.141Z,20.8
2018-03-22T01:26:48.279Z,20.8
2018-03-22T01:27:37.252Z,20.8
2018-03-22T01:28:27.564Z,20.8
2018-03-22T01:29:16.772Z,20.8
2018-03-22T01:30:07.721Z,20.8
2018-03-22T01:30:57.472Z,20.8
2018-03-22T01:31:47.434Z,20.7
2018-03-22T01:32:38.109Z,20.7
2018-03-22T01:33:28.170Z,20.8
2018-03-22T01:34:18.095Z,20.7
2018-03-22T01:35:08.874Z,20.7
2018-03-22T01:35:58.042Z,20.7
2018-03-22T01:36:48.671Z,20.7
2018-03-22T01:37:38.851Z,20.8
2018-03-22T01:38:27.914Z,20.7
2018-03-22T01:39:18.547Z,20.7
2018-03-22T01:40:08.345Z,20.7
2018-03-22T01:40:58.457Z,20.7
2018-03-22T01:41:48.338Z,20.7
2018-03-22T01:42:38.530Z,20.7
2018-03-22T01:43:28.941Z,20.7
2018-03-22T01:44:18.707Z,20.7
2018-03-22T01:45:08.441Z,20.6
2018-03-22T01:45:59.035Z,20.6
2018-03-22T01:46:48.783Z,20.6
2018-03-22T01:47:39.160Z,20.7
2018-03-22T01:48:29.787Z,20.7
2018-03-22T01:49:19.229Z,20.6
2018-03-22T01:50:09.306Z,20.6
2018-03-22T01:50:59.167Z,20.6
2018-03-22T01:51:49.706Z,20.6
2018-03-22T01:52:39.069Z,20.6
2018-03-22T01:53:29.553Z,20.6
2018-03-22T01:54:19.420Z,20.6
2018-03-22T01:55:09.370Z,20.6
2018-03-22T01:55:59.532Z,20.6
2018-03-22T01:56:49.473Z,20.6
2018-03-22T01:57:39.539Z,20.6
2018-03-22T01:58:30.475Z,20.6
2018-03-22T01:59:19.472Z,20.6
2018-03-22T02:00:10.040Z,20.6
2018-03-22T02:01:00.058Z,20.6
2018-03-22T02:01:50.291Z,20.6
2018-03-22T02:02:40.460Z,20.6
2018-03-22T02:03:30.541Z,20.6
2018-03-22T02:04:20.193Z,20.6
2018-03-22T02:05:09.870Z,20.6
2018-03-22T02:06:00.024Z,20.6
2018-03-22T02:06:50.463Z,20.6
2018-03-22T02:07:40.253Z,20.6
2018-03-22T02:08:30.187Z,20.6
2018-03-22T02:09:20.633Z,20.6
2018-03-22T02:10:10.575Z,20.6
2018-03-22T02:11:00.660Z,20.6
2018-03-22T02:11:51.124Z,20.6
2018-03-22T02:12:40.570Z,20.6
2018-03-22T02:13:30.554Z,20.6
2018-03-22T02:14:20.394Z,20.6
2018-03-22T02:15:11.064Z,20.6
2018-03-22T02:16:01.119Z,20.6
2018-03-22T02:16:50.869Z,20.6
2018-03-22T02:17:40.956Z,20.6
2018-03-22T02:18:31.587Z,20.6
2018-03-22T02:19:21.355Z,20.5
2018-03-22T02:20:11.209Z,20.5
2018-03-22T02:21:01.172Z,20.5
2018-03-22T02:21:50.824Z,20.5
2018-03-22T02:22:41.659Z,20.5
2018-03-22T02:23:31.544Z,20.6
2018-03-22T02:24:21.984Z,20.6
2018-03-22T02:25:11.766Z,20.5
2018-03-22T02:26:01.552Z,20.5
2018-03-22T02:26:52.179Z,20.6
2018-03-22T02:27:41.941Z,20.6
2018-03-22T02:28:31.996Z,20.5
2018-03-22T02:29:21.788Z,20.5
2018-03-22T02:30:12.402Z,20.5
2018-03-22T02:31:01.956Z,20.5
2018-03-22T02:31:51.944Z,20.5
2018-03-22T02:32:41.801Z,20.5
2018-03-22T02:33:32.349Z,20.5
2018-03-22T02:34:22.090Z,20.5
2018-03-22T02:35:12.159Z,20.5
2018-03-22T02:36:01.448Z,20.5
2018-03-22T02:36:52.570Z,20.5
2018-03-22T02:37:42.740Z,20.5
2018-03-22T02:38:32.196Z,20.5
2018-03-22T02:39:22.566Z,20.4
2018-03-22T02:40:13.130Z,20.5
2018-03-22T02:41:03.130Z,20.4
2018-03-22T02:41:52.741Z,20.4
2018-03-22T02:42:42.307Z,20.4
2018-03-22T02:43:32.469Z,20.4
2018-03-22T02:44:23.399Z,20.4
2018-03-22T02:45:12.981Z,20.4
2018-03-22T02:46:02.912Z,20.4
2018-03-22T02:46:53.298Z,20.4
2018-03-22T02:47:43.370Z,20.4
2018-03-22T02:48:33.085Z,20.4
2018-03-22T02:49:23.475Z,20.4
2018-03-22T02:50:13.789Z,20.4
2018-03-22T02:51:03.611Z,20.4
2018-03-22T02:51:53.121Z,20.4
2018-03-22T02:52:43.773Z,20.4
2018-03-22T02:53:33.739Z,20.4
2018-03-22T02:54:23.403Z,20.5
2018-03-22T02:55:13.867Z,20.4
2018-03-22T02:56:03.658Z,20.4
2018-03-22T02:56:53.997Z,20.4
2018-03-22T02:57:43.336Z,20.4
2018-03-22T02:58:33.796Z,20.4
2018-03-22T02:59:23.884Z,20.4
2018-03-22T03:00:14.318Z,20.4
2018-03-22T03:01:03.985Z,20.4
2018-03-22T03:01:54.327Z,20.4
2018-03-22T03:02:44.086Z,20.4
2018-03-22T03:03:34.144Z,20.4
2018-03-22T03:04:24.022Z,20.4
2018-03-22T03:05:14.368Z,20.4
2018-03-22T03:06:04.212Z,20.4
2018-03-22T03:06:54.502Z,20.4
2018-03-22T03:07:44.726Z,20.4
2018-03-22T03:08:35.087Z,20.4
2018-03-22T03:09:24.244Z,20.4
2018-03-22T03:10:14.209Z,20.4
2018-03-22T03:11:04.777Z,20.4
2018-03-22T03:11:53.949Z,20.4
2018-03-22T03:12:44.953Z,20.4
2018-03-22T03:13:34.926Z,20.4
2018-03-22T03:14:24.966Z,20.4
2018-03-22T03:15:15.076Z,20.4
2018-03-22T03:16:05.391Z,20.5
2018-03-22T03:16:55.089Z,20.4
2018-03-22T03:17:45.011Z,20.4
2018-03-22T03:18:34.996Z,20.4
2018-03-22T03:19:25.543Z,20.4
2018-03-22T03:20:15.310Z,20.4
2018-03-22T03:21:05.446Z,20.5
2018-03-22T03:21:55.993Z,20.4
2018-03-22T03:22:45.198Z,20.4
2018-03-22T03:23:36.099Z,20.4
2018-03-22T03:24:25.312Z,20.4
2018-03-22T03:25:15.457Z,20.4
2018-03-22T03:26:05.983Z,20.4
2018-03-22T03:26:55.265Z,20.4
2018-03-22T03:27:46.114Z,20.4
2018-03-22T03:28:35.997Z,20.4
2018-03-22T03:29:26.527Z,20.5
2018-03-22T03:30:15.773Z,20.4
2018-03-22T03:31:06.080Z,20.4
2018-03-22T03:31:56.472Z,20.4
2018-03-22T03:32:46.195Z,20.4
2018-03-22T03:33:35.962Z,20.4
2018-03-22T03:34:27.165Z,20.4
2018-03-22T03:35:16.061Z,20.4
2018-03-22T03:36:06.519Z,20.4
2018-03-22T03:36:56.497Z,20.4
2018-03-22T03:37:46.335Z,20.4
2018-03-22T03:38:35.804Z,20.4
2018-03-22T03:39:26.511Z,20.5
2018-03-22T03:40:16.717Z,20.4
2018-03-22T03:41:06.857Z,20.4
2018-03-22T03:41:56.525Z,20.4
2018-03-22T03:42:46.980Z,20.5
2018-03-22T03:43:37.851Z,20.5
2018-03-22T03:44:27.281Z,20.4
2018-03-22T03:45:17.644Z,20.4
2018-03-22T03:46:06.619Z,20.5
2018-03-22T03:46:57.474Z,20.5
2018-03-22T03:47:46.948Z,20.4
2018-03-22T03:48:37.747Z,20.5
2018-03-22T03:49:27.151Z,20.5
2018-03-22T03:50:17.374Z,20.5
2018-03-22T03:51:07.777Z,20.4
2018-03-22T03:51:57.318Z,20.5
2018-03-22T03:52:48.488Z,20.5
2018-03-22T03:53:37.724Z,20.5
2018-03-22T03:54:27.684Z,20.5
2018-03-22T03:55:17.646Z,20.5
2018-03-22T03:56:08.116Z,20.4
2018-03-22T03:56:57.943Z,20.5
2018-03-22T03:57:48.512Z,20.4
2018-03-22T03:58:38.345Z,20.4
2018-03-22T03:59:28.361Z,20.4
2018-03-22T04:00:17.983Z,20.4
2018-03-22T04:01:08.745Z,20.4
2018-03-22T04:01:58.308Z,20.4
2018-03-22T04:02:48.557Z,20.5
2018-03-22T04:03:38.410Z,20.5
2018-03-22T04:04:28.697Z,20.5
2018-03-22T04:05:19.022Z,20.5
2018-03-22T04:06:08.845Z,20.5
2018-03-22T04:06:57.986Z,20.5
2018-03-22T04:07:48.915Z,20.4
2018-03-22T04:08:38.768Z,20.4
2018-03-22T04:09:29.322Z,20.4
2018-03-22T04:10:18.788Z,20.4
2018-03-22T04:11:09.479Z,20.4
2018-03-22T04:11:59.808Z,20.4
2018-03-22T04:12:49.817Z,20.4
2018-03-22T04:13:39.613Z,20.5
2018-03-22T04:14:29.381Z,20.4
2018-03-22T04:15:19.142Z,20.4
2018-03-22T04:16:09.507Z,20.4
2018-03-22T04:16:59.900Z,20.5
2018-03-22T04:17:49.220Z,20.4
2018-03-22T04:18:39.369Z,20.4
2018-03-22T04:19:29.231Z,20.4
2018-03-22T04:20:19.777Z,20.5
2018-03-22T04:21:09.375Z,20.4
2018-03-22T04:21:59.393Z,20.4
2018-03-22T04:22:49.765Z,20.5
2018-03-22T04:23:39.710Z,20.5
2018-03-22T04:24:29.877Z,20.5
2018-03-22T04:25:19.539Z,20.4
2018-03-22T04:26:09.887Z,20.5
2018-03-22T04:26:59.959Z,20.5
2018-03-22T04:27:50.665Z,20.5
2018-03-22T04:28:40.170Z,20.5
2018-03-22T04:29:30.440Z,20.4
2018-03-22T04:30:21.049Z,20.5
2018-03-22T04:31:10.823Z,20.4
2018-03-22T04:32:00.607Z,20.5
2018-03-22T04:32:50.761Z,20.5
2018-03-22T04:33:40.698Z,20.5
2018-03-22T04:34:31.028Z,20.4
2018-03-22T04:35:20.833Z,20.4
2018-03-22T04:36:10.410Z,20.5
2018-03-22T04:37:00.456Z,20.5
2018-03-22T04:37:50.716Z,20.5
2018-03-22T04:38:40.935Z,20.4
2018-03-22T04:39:31.126Z,20.4
2018-03-22T04:40:20.860Z,20.5
2018-03-22T04:41:10.839Z,20.4
2018-03-22T04:42:00.783Z,20.5
2018-03-22T04:42:51.649Z,20.5
2018-03-22T04:43:40.725Z,20.5
2018-03-22T04:44:31.192Z,20.5
2018-03-22T04:45:21.539Z,20.5
2018-03-22T04:46:10.984Z,20.4
2018-03-22T04:47:00.580Z,20.4
2018-03-22T04:47:51.408Z,20.4
2018-03-22T04:48:42.058Z,20.5
2018-03-22T04:49:31.813Z,20.5
2018-03-22T04:50:21.893Z,20.4
2018-03-22T04:51:11.041Z,20.4
2018-03-22T04:52:01.611Z,20.4
2018-03-22T04:52:51.763Z,20.5
2018-03-22T04:53:42.367Z,20.4
2018-03-22T04:54:32.467Z,20.4
2018-03-22T04:55:22.490Z,20.5
2018-03-22T04:56:12.576Z,20.5
2018-03-22T04:57:02.294Z,20.5
2018-03-22T04:57:52.972Z,20.5
2018-03-22T04:58:42.723Z,20.5
2018-03-22T04:59:32.819Z,20.5
2018-03-22T05:00:22.579Z,20.5
2018-03-22T05:01:12.641Z,20.5
2018-03-22T05:02:02.111Z,20.4
2018-03-22T05:02:53.016Z,20.4
2018-03-22T05:03:43.062Z,20.5
2018-03-22T05:04:33.130Z,20.4
2018-03-22T05:05:23.463Z,20.4
2018-03-22T05:06:13.285Z,20.4
2018-03-22T05:07:03.368Z,20.4
2018-03-22T05:07:53.658Z,20.4
2018-03-22T05:08:43.135Z,20.5
2018-03-22T05:09:33.751Z,20.4
2018-03-22T05:10:23.841Z,20.4
2018-03-22T05:11:13.587Z,20.4
2018-03-22T05:12:03.681Z,20.4
2018-03-22T05:12:53.704Z,20.4
2018-03-22T05:13:43.544Z,20.4
2018-03-22T05:14:34.132Z,20.4
2018-03-22T05:15:23.963Z,20.4
2018-03-22T05:16:13.686Z,20.4
2018-03-22T05:17:04.017Z,20.4
2018-03-22T05:17:54.050Z,20.5
2018-03-22T05:18:44.641Z,20.4
2018-03-22T05:19:34.159Z,20.4
2018-03-22T05:20:23.973Z,20.4
2018-03-22T05:21:14.579Z,20.4
2018-03-22T05:22:04.334Z,20.4
2018-03-22T05:22:54.136Z,20.5
2018-03-22T05:23:44.786Z,20.5
2018-03-22T05:24:34.850Z,20.5
2018-03-22T05:25:24.879Z,20.5
2018-03-22T05:26:14.904Z,20.5
2018-03-22T05:27:04.991Z,20.5
2018-03-22T05:27:54.756Z,20.5
2018-03-22T05:28:45.101Z,20.5
2018-03-22T05:29:35.144Z,20.5
2018-03-22T05:30:25.209Z,20.5
2018-03-22T05:31:15.280Z,20.5
2018-03-22T05:32:04.766Z,20.5
2018-03-22T05:32:55.084Z,20.4
2018-03-22T05:33:45.151Z,20.5
2018-03-22T05:34:35.538Z,20.5
2018-03-22T05:35:25.566Z,20.5
2018-03-22T05:36:15.590Z,20.5
2018-03-22T05:37:05.426Z,20.5
2018-03-22T05:37:55.713Z,20.5
2018-03-22T05:38:45.788Z,20.5
2018-03-22T05:39:35.831Z,20.5
2018-03-22T05:40:25.910Z,20.5
2018-03-22T05:41:15.660Z,20.5
2018-03-22T05:42:05.776Z,20.5
2018-03-22T05:42:55.495Z,20.5
2018-03-22T05:43:45.947Z,20.5
2018-03-22T05:44:35.651Z,20.4
2018-03-22T05:45:25.101Z,20.5
2018-03-22T05:46:15.838Z,20.4
2018-03-22T05:47:05.508Z,20.5
2018-03-22T05:47:55.963Z,20.5
2018-03-22T05:48:46.200Z,20.5
2018-03-22T05:49:36.002Z,20.5
2018-03-22T05:50:25.943Z,20.5
2018-03-22T05:51:15.613Z,20.4
2018-03-22T05:52:06.317Z,20.4
2018-03-22T05:52:55.932Z,20.4
2018-03-22T05:53:46.268Z,20.4
2018-03-22T05:54:35.450Z,20.4
2018-03-22T05:55:26.492Z,20.5
2018-03-22T05:56:16.050Z,20.4
2018-03-22T05:57:06.299Z,20.4
2018-03-22T05:57:56.867Z,20.4
2018-03-22T05:58:46.925Z,20.5
2018-03-22T05:59:36.494Z,20.4
2018-03-22T06:00:26.645Z,20.4
2018-03-22T06:01:17.100Z,20.5
2018-03-22T06:02:06.475Z,20.4
2018-03-22T06:02:56.928Z,20.4
2018-03-22T06:03:47.058Z,20.4
2018-03-22T06:04:36.437Z,20.5
2018-03-22T06:05:26.502Z,20.5
2018-03-22T06:06:16.943Z,20.4
2018-03-22T06:07:06.424Z,20.4
2018-03-22T06:07:57.389Z,20.4
2018-03-22T06:08:47.787Z,20.4
2018-03-22T06:09:37.665Z,20.4
2018-03-22T06:10:27.440Z,20.4
2018-03-22T06:11:17.852Z,20.5
2018-03-22T06:12:07.054Z,20.4
2018-03-22T06:12:57.314Z,20.4
2018-03-22T06:13:47.389Z,20.4
2018-03-22T06:14:37.795Z,20.4
2018-03-22T06:15:27.209Z,20.4
2018-03-22T06:16:18.104Z,20.4
2018-03-22T06:17:07.512Z,20.4
2018-03-22T06:17:58.046Z,20.4
2018-03-22T06:18:47.723Z,20.4
2018-03-22T06:19:37.286Z,20.4
2018-03-22T06:20:27.926Z,20.4
2018-03-22T06:21:18.377Z,20.4
2018-03-22T06:22:07.942Z,20.4
2018-03-22T06:22:58.177Z,20.4
2018-03-22T06:23:48.654Z,20.4
2018-03-22T06:24:38.207Z,20.4
2018-03-22T06:25:27.892Z,20.4
2018-03-22T06:26:18.249Z,20.4
2018-03-22T06:27:07.809Z,20.4
2018-03-22T06:27:58.955Z,20.4
2018-03-22T06:28:48.844Z,20.4
2018-03-22T06:29:38.253Z,20.4
2018-03-22T06:30:27.633Z,20.4
2018-03-22T06:31:18.279Z,20.4
2018-03-22T06:32:08.717Z,20.4
2018-03-22T06:32:58.610Z,20.4
2018-03-22T06:33:48.365Z,20.4
2018-03-22T06:34:38.706Z,20.4
2018-03-22T06:35:28.983Z,20.4
2018-03-22T06:36:18.735Z,20.4
2018-03-22T06:37:09.396Z,20.4
2018-03-22T06:37:59.121Z,20.4
2018-03-22T06:38:49.198Z,20.4
2018-03-22T06:39:39.249Z,20.4
2018-03-22T06:40:29.125Z,20.4
2018-03-22T06:41:19.220Z,20.4
2018-03-22T06:42:09.025Z,20.4
2018-03-22T06:42:59.245Z,20.4
2018-03-22T06:43:49.141Z,20.4
2018-03-22T06:44:39.512Z,20.4
2018-03-22T06:45:29.660Z,20.4
2018-03-22T06:46:19.750Z,20.4
2018-03-22T06:47:09.567Z,20.4
2018-03-22T06:47:59.550Z,20.4
2018-03-22T06:48:49.797Z,20.4
2018-03-22T06:49:40.161Z,20.4
2018-03-22T06:50:30.112Z,20.4
2018-03-22T06:51:19.781Z,20.4
2018-03-22T06:52:10.298Z,20.4
2018-03-22T06:53:01.040Z,20.4
2018-03-22T06:53:50.050Z,20.4
2018-03-22T06:54:40.867Z,20.4
2018-03-22T06:55:29.974Z,20.4
2018-03-22T06:56:20.062Z,20.4
2018-03-22T06:57:10.262Z,20.4
2018-03-22T06:58:00.624Z,20.4
2018-03-22T06:58:50.382Z,20.4
2018-03-22T06:59:40.639Z,20.4
2018-03-22T07:00:30.889Z,20.4
2018-03-22T07:01:20.554Z,20.4
2018-03-22T07:02:10.809Z,20.4
2018-03-22T07:03:01.172Z,20.4
2018-03-22T07:03:51.461Z,20.4
2018-03-22T07:04:41.004Z,20.4
2018-03-22T07:05:30.954Z,20.4
2018-03-22T07:06:21.009Z,20.4
2018-03-22T07:07:10.474Z,20.4
2018-03-22T07:08:01.230Z,20.4
2018-03-22T07:08:51.192Z,20.4
2018-03-22T07:09:41.826Z,20.4
2018-03-22T07:10:31.027Z,20.4
2018-03-22T07:11:21.359Z,20.4
2018-03-22T07:12:11.707Z,20.4
2018-03-22T07:13:01.588Z,20.4
2018-03-22T07:13:51.836Z,20.4
2018-03-22T07:14:42.280Z,20.4
2018-03-22T07:15:31.539Z,20.4
2018-03-22T07:16:21.681Z,20.4
2018-03-22T07:17:12.043Z,20.4
2018-03-22T07:18:02.484Z,20.4
2018-03-22T07:18:52.275Z,20.4
2018-03-22T07:19:42.520Z,20.4
2018-03-22T07:20:32.300Z,20.4
2018-03-22T07:21:22.311Z,20.4
2018-03-22T07:22:12.100Z,20.4
2018-03-22T07:23:02.330Z,20.4
2018-03-22T07:23:52.227Z,20.4
2018-03-22T07:24:42.890Z,20.4
2018-03-22T07:25:32.279Z,20.4
2018-03-22T07:26:22.488Z,20.4
2018-03-22T07:27:13.029Z,20.4
2018-03-22T07:28:02.798Z,20.4
2018-03-22T07:28:52.250Z,20.4
2018-03-22T07:29:43.210Z,20.4
2018-03-22T07:30:32.701Z,20.4
2018-03-22T07:31:23.312Z,20.3
2018-03-22T07:32:13.455Z,20.4
2018-03-22T07:33:03.141Z,20.4
2018-03-22T07:33:53.255Z,20.4
2018-03-22T07:34:42.967Z,20.4
2018-03-22T07:35:33.858Z,20.4
2018-03-22T07:36:23.639Z,20.4
2018-03-22T07:37:13.697Z,20.4
2018-03-22T07:38:03.859Z,20.4
2018-03-22T07:38:53.847Z,20.4
2018-03-22T07:39:43.893Z,20.4
2018-03-22T07:40:33.395Z,20.4
2018-03-22T07:41:23.527Z,20.4
2018-03-22T07:42:13.493Z,20.4
2018-03-22T07:43:03.260Z,20.4
2018-03-22T07:43:53.519Z,20.4
2018-03-22T07:44:44.215Z,20.4
2018-03-22T07:45:33.733Z,20.3
2018-03-22T07:46:24.158Z,20.4
2018-03-22T07:47:14.180Z,20.4
2018-03-22T07:48:04.176Z,20.4
2018-03-22T07:48:54.558Z,20.4
2018-03-22T07:49:44.687Z,20.4
2018-03-22T07:50:34.378Z,20.4
2018-03-22T07:51:24.705Z,20.3
2018-03-22T07:52:14.265Z,20.4
2018-03-22T07:53:04.823Z,20.4
2018-03-22T07:53:54.588Z,20.4
2018-03-22T07:54:44.937Z,20.4
2018-03-22T07:55:34.668Z,20.3
2018-03-22T07:56:25.047Z,20.3
2018-03-22T07:57:15.397Z,20.4
2018-03-22T07:58:04.657Z,20.4
2018-03-22T07:58:55.601Z,20.3
2018-03-22T07:59:44.997Z,20.4
2018-03-22T08:00:35.062Z,20.3
2018-03-22T08:01:24.235Z,20.4
2018-03-22T08:02:14.394Z,20.4
2018-03-22T08:03:05.220Z,20.3
2018-03-22T08:03:55.376Z,20.4
2018-03-22T08:04:45.070Z,20.4
2018-03-22T08:05:35.503Z,20.4
2018-03-22T08:06:25.167Z,20.3
2018-03-22T08:07:15.501Z,20.4
2018-03-22T08:08:05.472Z,20.4
2018-03-22T08:08:55.224Z,20.3
2018-03-22T08:09:46.259Z,20.3
2018-03-22T08:10:35.442Z,20.3
2018-03-22T08:11:25.094Z,20.3
2018-03-22T08:12:16.147Z,20.4
2018-03-22T08:13:05.911Z,20.3
2018-03-22T08:13:55.779Z,20.3
2018-03-22T08:14:45.435Z,20.3
2018-03-22T08:15:35.793Z,20.3
2018-03-22T08:16:26.410Z,20.3
2018-03-22T08:17:16.211Z,20.3
2018-03-22T08:18:06.544Z,20.3
2018-03-22T08:18:55.931Z,20.3
2018-03-22T08:19:45.266Z,20.3
2018-03-22T08:20:36.543Z,20.3
2018-03-22T08:21:26.058Z,20.3
2018-03-22T08:22:16.538Z,20.3
2018-03-22T08:23:06.116Z,20.3
2018-03-22T08:23:55.964Z,20.3
2018-03-22T08:24:46.313Z,20.3
2018-03-22T08:25:36.168Z,20.3
2018-03-22T08:26:26.698Z,20.3
2018-03-22T08:27:16.701Z,20.3
2018-03-22T08:28:07.109Z,20.3
2018-03-22T08:28:56.883Z,20.3
2018-03-22T08:29:46.775Z,20.3
2018-03-22T08:30:35.934Z,20.3
2018-03-22T08:31:26.283Z,20.3
2018-03-22T08:32:16.543Z,20.3
2018-03-22T08:33:07.094Z,20.3
2018-03-22T08:33:57.617Z,20.3
2018-03-22T08:34:47.697Z,20.3
2018-03-22T08:35:37.197Z,20.3
2018-03-22T08:36:27.525Z,20.3
2018-03-22T08:37:17.848Z,20.3
2018-03-22T08:38:07.416Z,20.3
2018-03-22T08:38:57.274Z,20.3
2018-03-22T08:39:47.346Z,20.3
2018-03-22T08:40:37.297Z,20.3
2018-03-22T08:41:28.235Z,20.3
2018-03-22T08:42:17.936Z,20.3
2018-03-22T08:43:08.546Z,20.3
2018-03-22T08:43:58.028Z,20.3
2018-03-22T08:44:47.927Z,20.3
2018-03-22T08:45:37.745Z,20.3
2018-03-22T08:46:28.515Z,20.3
2018-03-22T08:47:18.077Z,20.3
2018-03-22T08:48:08.325Z,20.3
2018-03-22T08:48:58.467Z,20.3
2018-03-22T08:49:48.722Z,20.3
2018-03-22T08:50:38.805Z,20.3
2018-03-22T08:51:28.464Z,20.3
2018-03-22T08:52:18.623Z,20.3
2018-03-22T08:53:08.466Z,20.3
2018-03-22T08:53:58.490Z,20.3
2018-03-22T08:54:49.612Z,20.3
2018-03-22T08:55:39.437Z,20.3
2018-03-22T08:56:29.173Z,20.3
2018-03-22T08:57:18.743Z,20.3
2018-03-22T08:58:08.869Z,20.3
2018-03-22T08:58:58.894Z,20.3
2018-03-22T08:59:48.690Z,20.3
2018-03-22T09:00:38.897Z,20.3
2018-03-22T09:01:29.028Z,20.3
2018-03-22T09:02:19.107Z,20.3
2018-03-22T09:03:08.868Z,20.3
2018-03-22T09:03:59.209Z,20.3
2018-03-22T09:04:49.767Z,20.3
2018-03-22T09:05:39.403Z,20.3
2018-03-22T09:06:29.868Z,20.3
2018-03-22T09:07:19.143Z,20.3
2018-03-22T09:08:09.841Z,20.3
2018-03-22T09:09:00.051Z,20.3
2018-03-22T09:09:49.971Z,20.3
2018-03-22T09:10:39.874Z,20.3
2018-03-22T09:11:29.948Z,20.3
2018-03-22T09:12:19.593Z,20.3
2018-03-22T09:13:10.018Z,20.3
2018-03-22T09:14:00.672Z,20.3
2018-03-22T09:14:49.950Z,20.3
2018-03-22T09:15:40.096Z,20.3
2018-03-22T09:16:29.892Z,20.3
2018-03-22T09:17:20.411Z,20.3
2018-03-22T09:18:10.485Z,20.3
2018-03-22T09:19:00.440Z,20.3
2018-03-22T09:19:50.129Z,20.3
2018-03-22T09:20:40.057Z,20.3
2018-03-22T09:21:30.345Z,20.3
2018-03-22T09:22:20.776Z,20.3
2018-03-22T09:23:10.825Z,20.3
2018-03-22T09:24:00.783Z,20.3
2018-03-22T09:24:50.868Z,20.3
2018-03-22T09:25:40.898Z,20.3
2018-03-22T09:26:30.775Z,20.3
2018-03-22T09:27:20.829Z,20.3
2018-03-22T09:28:10.875Z,20.3
2018-03-22T09:29:01.433Z,20.3
2018-03-22T09:29:50.690Z,20.3
2018-03-22T09:30:41.866Z,20.3
2018-03-22T09:31:30.797Z,20.3
2018-03-22T09:32:21.359Z,20.3
2018-03-22T09:33:11.460Z,20.3
2018-03-22T09:34:01.465Z,20.3
2018-03-22T09:34:51.845Z,20.3
2018-03-22T09:35:41.405Z,20.3
2018-03-22T09:36:31.262Z,20.3
2018-03-22T09:37:21.420Z,20.3
2018-03-22T09:38:11.855Z,20.3
2018-03-22T09:39:02.206Z,20.2
2018-03-22T09:39:52.169Z,20.2
2018-03-22T09:40:41.355Z,20.3
2018-03-22T09:41:32.585Z,20.3
2018-03-22T09:42:21.942Z,20.3
2018-03-22T09:43:11.417Z,20.2
2018-03-22T09:44:02.480Z,20.3
2018-03-22T09:44:52.324Z,20.3
2018-03-22T09:45:41.696Z,20.3
2018-03-22T09:46:31.931Z,20.2
2018-03-22T09:47:22.093Z,20.3
2018-03-22T09:48:12.016Z,20.2
2018-03-22T09:49:02.396Z,20.3
2018-03-22T09:49:52.962Z,20.3
2018-03-22T09:50:42.629Z,20.2
2018-03-22T09:51:32.161Z,20.2
2018-03-22T09:52:22.554Z,20.3
2018-03-22T09:53:12.590Z,20.2
2018-03-22T09:54:02.278Z,20.3
2018-03-22T09:54:52.614Z,20.3
2018-03-22T09:55:43.070Z,20.2
2018-03-22T09:56:32.336Z,20.2
2018-03-22T09:57:23.674Z,20.3
2018-03-22T09:58:12.853Z,20.3
2018-03-22T09:59:03.811Z,20.2
2018-03-22T09:59:53.832Z,20.3
2018-03-22T10:00:43.865Z,20.2
2018-03-22T10:01:33.940Z,20.2
2018-03-22T10:02:23.990Z,20.2
2018-03-22T10:03:13.757Z,20.2
2018-03-22T10:04:03.810Z,20.3
2018-03-22T10:04:53.671Z,20.3
2018-03-22T10:05:43.437Z,20.3
2018-03-22T10:06:34.250Z,20.3
2018-03-22T10:07:24.372Z,20.2
2018-03-22T10:08:14.382Z,20.3
2018-03-22T10:09:03.705Z,20.3
2018-03-22T10:09:53.705Z,20.3
2018-03-22T10:10:43.492Z,20.3
2018-03-22T10:11:34.337Z,20.2
2018-03-22T10:12:24.665Z,20.3
2018-03-22T10:13:14.245Z,20.3
2018-03-22T10:14:03.723Z,20.2
2018-03-22T10:14:54.377Z,20.3
2018-03-22T10:15:44.430Z,20.2
2018-03-22T10:16:34.449Z,20.2
2018-03-22T10:17:24.169Z,20.3
2018-03-22T10:18:14.845Z,20.2
2018-03-22T10:19:04.575Z,20.2
2018-03-22T10:19:54.700Z,20.3
2018-03-22T10:20:45.254Z,20.2
2018-03-22T10:21:34.501Z,20.3
2018-03-22T10:22:24.870Z,20.3
2018-03-22T10:23:14.924Z,20.3
2018-03-22T10:24:04.961Z,20.3
2018-03-22T10:24:55.565Z,20.3
2018-03-22T10:25:44.829Z,20.2
2018-03-22T10:26:35.650Z,20.3
2018-03-22T10:27:25.164Z,20.2
2018-03-22T10:28:15.191Z,20.2
2018-03-22T10:29:05.264Z,20.3
2018-03-22T10:29:55.881Z,20.2
2018-03-22T10:30:45.469Z,20.2
2018-03-22T10:31:35.493Z,20.2
2018-03-22T10:32:26.041Z,20.3
2018-03-22T10:33:16.124Z,20.3
2018-03-22T10:34:05.609Z,20.2
2018-03-22T10:34:55.912Z,20.2
2018-03-22T10:35:45.724Z,20.2
2018-03-22T10:36:35.274Z,20.2
2018-03-22T10:37:25.046Z,20.2
2018-03-22T10:38:16.666Z,20.2
2018-03-22T10:39:05.662Z,20.2
2018-03-22T10:39:55.301Z,20.2
2018-03-22T10:40:45.833Z,20.2
2018-03-22T10:41:36.388Z,20.2
2018-03-22T10:42:26.249Z,20.2
2018-03-22T10:43:16.497Z,20.2
2018-03-22T10:44:05.539Z,20.2
2018-03-22T10:44:56.623Z,20.2
2018-03-22T10:45:45.907Z,20.2
2018-03-22T10:46:36.161Z,20.3
2018-03-22T10:47:26.105Z,20.3
2018-03-22T10:48:16.853Z,20.2
2018-03-22T10:49:06.356Z,20.3
2018-03-22T10:49:56.773Z,20.2
2018-03-22T10:50:46.452Z,20.2
2018-03-22T10:51:36.401Z,20.2
2018-03-22T10:52:27.034Z,20.2
2018-03-22T10:53:16.888Z,20.2
2018-03-22T10:54:06.765Z,20.2
2018-03-22T10:54:56.895Z,20.2
2018-03-22T10:55:47.368Z,20.2
2018-03-22T10:56:36.942Z,20.2
2018-03-22T10:57:26.911Z,20.2
2018-03-22T10:58:16.975Z,20.2
2018-03-22T10:59:07.309Z,20.2
2018-03-22T10:59:57.065Z,20.2
2018-03-22T11:00:46.998Z,20.2
2018-03-22T11:01:36.888Z,20.2
2018-03-22T11:02:27.130Z,20.2
2018-03-22T11:03:17.185Z,20.2
2018-03-22T11:04:07.667Z,20.2
2018-03-22T11:04:57.110Z,20.2
2018-03-22T11:05:47.180Z,20.2
2018-03-22T11:06:37.823Z,20.2
2018-03-22T11:07:27.887Z,20.2
2018-03-22T11:08:18.517Z,20.3
2018-03-22T11:09:08.068Z,20.2
2018-03-22T11:09:58.049Z,20.2
2018-03-22T11:10:48.098Z,20.2
2018-03-22T11:11:38.151Z,20.2
2018-03-22T11:12:28.226Z,20.2
2018-03-22T11:13:17.674Z,20.2
2018-03-22T11:14:08.344Z,20.2
2018-03-22T11:14:58.436Z,20.2